sensor_id;sensor_type;location;lat;lon;timestamp;pressure;altitude;pressure_sealevel;temperature;humidity
73457;BME280;61691;53.072;6.582;2023-07-08T00:00:53;102026.97;;;18.42;55.40
73457;BME280;61691;53.072;6.582;2023-07-08T00:03:20;102023.91;;;18.37;55.83
73457;BME280;61691;53.072;6.582;2023-07-08T00:05:50;102000.47;;;18.22;55.37
73457;BME280;61691;53.072;6.582;2023-07-08T00:08:20;102021.72;;;18.33;56.03
73457;BME280;61691;53.072;6.582;2023-07-08T00:10:47;102026.09;;;18.34;56.08
73457;BME280;61691;53.072;6.582;2023-07-08T00:13:14;102025.53;;;18.30;55.84
73457;BME280;61691;53.072;6.582;2023-07-08T00:15:41;102006.84;;;18.21;55.95
73457;BME280;61691;53.072;6.582;2023-07-08T00:18:13;102011.16;;;18.13;56.22
73457;BME280;61691;53.072;6.582;2023-07-08T00:20:48;102008.78;;;18.10;56.68
73457;BME280;61691;53.072;6.582;2023-07-08T00:23:16;102013.16;;;18.11;56.73
73457;BME280;61691;53.072;6.582;2023-07-08T00:25:43;102021.59;;;18.16;56.60
73457;BME280;61691;53.072;6.582;2023-07-08T00:28:12;102007.41;;;18.06;56.49
73457;BME280;61691;53.072;6.582;2023-07-08T00:30:40;102012.06;;;18.04;56.50
73457;BME280;61691;53.072;6.582;2023-07-08T00:33:07;102028.72;;;18.08;57.16
73457;BME280;61691;53.072;6.582;2023-07-08T00:35:39;102022.50;;;18.07;56.71
73457;BME280;61691;53.072;6.582;2023-07-08T00:40:50;102025.72;;;17.93;57.33
73457;BME280;61691;53.072;6.582;2023-07-08T00:43:19;101996.22;;;17.75;56.94
73457;BME280;61691;53.072;6.582;2023-07-08T00:45:53;102032.25;;;17.91;56.97
73457;BME280;61691;53.072;6.582;2023-07-08T00:48:31;102026.03;;;17.90;57.37
73457;BME280;61691;53.072;6.582;2023-07-08T00:51:00;101998.06;;;17.75;57.45
73457;BME280;61691;53.072;6.582;2023-07-08T00:53:33;102020.44;;;17.84;57.39
73457;BME280;61691;53.072;6.582;2023-07-08T00:56:03;102021.59;;;17.81;57.80
73457;BME280;61691;53.072;6.582;2023-07-08T00:58:35;102012.31;;;17.75;57.61
73457;BME280;61691;53.072;6.582;2023-07-08T01:01:05;102005.09;;;17.76;57.59
73457;BME280;61691;53.072;6.582;2023-07-08T01:03:38;102010.78;;;17.73;57.78
73457;BME280;61691;53.072;6.582;2023-07-08T01:06:08;101995.47;;;17.65;57.74
73457;BME280;61691;53.072;6.582;2023-07-08T01:08:34;102015.31;;;17.72;58.06
73457;BME280;61691;53.072;6.582;2023-07-08T01:11:02;102014.75;;;17.69;58.26
73457;BME280;61691;53.072;6.582;2023-07-08T01:13:35;102014.91;;;17.67;58.43
73457;BME280;61691;53.072;6.582;2023-07-08T01:16:04;102010.00;;;17.63;58.25
73457;BME280;61691;53.072;6.582;2023-07-08T01:18:32;102007.91;;;17.57;58.46
73457;BME280;61691;53.072;6.582;2023-07-08T01:21:02;101983.00;;;17.47;58.26
73457;BME280;61691;53.072;6.582;2023-07-08T01:23:34;102008.91;;;17.56;58.67
73457;BME280;61691;53.072;6.582;2023-07-08T01:26:02;101999.44;;;17.52;58.72
73457;BME280;61691;53.072;6.582;2023-07-08T01:28:29;101992.03;;;17.46;58.84
73457;BME280;61691;53.072;6.582;2023-07-08T01:30:56;101994.31;;;17.40;58.77
73457;BME280;61691;53.072;6.582;2023-07-08T01:33:24;101980.13;;;17.30;58.92
73457;BME280;61691;53.072;6.582;2023-07-08T01:35:51;101986.56;;;17.37;58.99
73457;BME280;61691;53.072;6.582;2023-07-08T01:38:24;101950.06;;;17.09;59.68
73457;BME280;61691;53.072;6.582;2023-07-08T01:40:54;101985.50;;;17.30;59.68
73457;BME280;61691;53.072;6.582;2023-07-08T01:43:22;101976.78;;;17.28;59.05
73457;BME280;61691;53.072;6.582;2023-07-08T01:45:49;101971.00;;;17.23;59.44
73457;BME280;61691;53.072;6.582;2023-07-08T01:48:19;101981.13;;;17.29;59.45
73457;BME280;61691;53.072;6.582;2023-07-08T01:50:51;101976.78;;;17.28;59.31
73457;BME280;61691;53.072;6.582;2023-07-08T01:53:31;101944.44;;;17.12;59.59
73457;BME280;61691;53.072;6.582;2023-07-08T01:55:58;101885.75;;;16.64;59.63
73457;BME280;61691;53.072;6.582;2023-07-08T01:58:26;101967.78;;;17.20;60.09
73457;BME280;61691;53.072;6.582;2023-07-08T02:00:53;101926.47;;;16.95;60.03
73457;BME280;61691;53.072;6.582;2023-07-08T02:03:21;101966.25;;;17.17;59.72
73457;BME280;61691;53.072;6.582;2023-07-08T02:05:48;101963.56;;;17.17;59.81
73457;BME280;61691;53.072;6.582;2023-07-08T02:08:15;101941.94;;;17.01;60.29
73457;BME280;61691;53.072;6.582;2023-07-08T02:10:43;101957.84;;;17.12;60.11
73457;BME280;61691;53.072;6.582;2023-07-08T02:13:10;101953.06;;;17.06;60.35
73457;BME280;61691;53.072;6.582;2023-07-08T02:15:37;101948.72;;;17.05;60.36
73457;BME280;61691;53.072;6.582;2023-07-08T02:18:03;101946.78;;;16.97;60.27
73457;BME280;61691;53.072;6.582;2023-07-08T02:20:30;101936.91;;;16.98;60.50
73457;BME280;61691;53.072;6.582;2023-07-08T02:22:57;101938.56;;;16.99;60.56
73457;BME280;61691;53.072;6.582;2023-07-08T02:25:24;101953.34;;;17.03;60.32
73457;BME280;61691;53.072;6.582;2023-07-08T02:27:52;101937.44;;;17.01;60.34
73457;BME280;61691;53.072;6.582;2023-07-08T02:30:21;101919.66;;;16.83;60.81
73457;BME280;61691;53.072;6.582;2023-07-08T02:32:47;101905.16;;;16.76;60.83
73457;BME280;61691;53.072;6.582;2023-07-08T02:35:28;101942.69;;;16.93;60.69
73457;BME280;61691;53.072;6.582;2023-07-08T02:37:57;101928.63;;;16.91;60.72
73457;BME280;61691;53.072;6.582;2023-07-08T02:40:24;101933.97;;;16.91;61.07
73457;BME280;61691;53.072;6.582;2023-07-08T02:42:52;101937.47;;;16.92;61.15
73457;BME280;61691;53.072;6.582;2023-07-08T02:45:19;101910.22;;;16.79;61.28
73457;BME280;61691;53.072;6.582;2023-07-08T02:47:46;101899.81;;;16.76;61.12
73457;BME280;61691;53.072;6.582;2023-07-08T02:50:13;101920.31;;;16.85;61.18
73457;BME280;61691;53.072;6.582;2023-07-08T02:52:39;101917.25;;;16.80;61.06
73457;BME280;61691;53.072;6.582;2023-07-08T02:55:07;101924.53;;;16.87;60.90
73457;BME280;61691;53.072;6.582;2023-07-08T02:57:33;101920.31;;;16.85;61.37
73457;BME280;61691;53.072;6.582;2023-07-08T03:00:00;101910.22;;;16.79;61.38
73457;BME280;61691;53.072;6.582;2023-07-08T03:02:27;101911.06;;;16.79;61.25
73457;BME280;61691;53.072;6.582;2023-07-08T03:04:54;101889.00;;;16.68;61.65
73457;BME280;61691;53.072;6.582;2023-07-08T03:07:21;101891.34;;;16.71;61.20
73457;BME280;61691;53.072;6.582;2023-07-08T03:09:47;101919.78;;;16.81;61.20
73457;BME280;61691;53.072;6.582;2023-07-08T03:12:14;101920.50;;;16.83;61.59
73457;BME280;61691;53.072;6.582;2023-07-08T03:14:41;101891.97;;;16.64;61.30
73457;BME280;61691;53.072;6.582;2023-07-08T03:17:08;101879.88;;;16.60;61.44
73457;BME280;61691;53.072;6.582;2023-07-08T03:19:34;101899.25;;;16.72;61.30
73457;BME280;61691;53.072;6.582;2023-07-08T03:22:01;101893.91;;;16.72;61.50
73457;BME280;61691;53.072;6.582;2023-07-08T03:24:31;101888.00;;;16.69;61.40
73457;BME280;61691;53.072;6.582;2023-07-08T03:26:58;101851.88;;;16.45;61.53
73457;BME280;61691;53.072;6.582;2023-07-08T03:29:27;101886.59;;;16.64;62.09
73457;BME280;61691;53.072;6.582;2023-07-08T03:31:53;101904.84;;;16.79;61.70
73457;BME280;61691;53.072;6.582;2023-07-08T03:34:20;101901.78;;;16.74;61.72
73457;BME280;61691;53.072;6.582;2023-07-08T03:36:48;101906.53;;;16.80;62.08
73457;BME280;61691;53.072;6.582;2023-07-08T03:39:17;101902.88;;;16.81;61.77
73457;BME280;61691;53.072;6.582;2023-07-08T03:41:44;101894.59;;;16.74;61.72
73457;BME280;61691;53.072;6.582;2023-07-08T03:44:11;101897.53;;;16.81;62.06
73457;BME280;61691;53.072;6.582;2023-07-08T03:46:39;101893.53;;;16.85;62.08
73457;BME280;61691;53.072;6.582;2023-07-08T03:49:06;101811.63;;;16.37;61.71
73457;BME280;61691;53.072;6.582;2023-07-08T03:51:35;101903.34;;;16.94;61.79
73457;BME280;61691;53.072;6.582;2023-07-08T03:54:03;101905.19;;;16.93;61.74
73457;BME280;61691;53.072;6.582;2023-07-08T03:56:30;101890.56;;;16.88;61.69
73457;BME280;61691;53.072;6.582;2023-07-08T03:58:57;101871.34;;;16.75;61.61
73457;BME280;61691;53.072;6.582;2023-07-08T04:01:25;101901.13;;;16.89;61.80
73457;BME280;61691;53.072;6.582;2023-07-08T04:03:54;101872.44;;;16.82;62.17
73457;BME280;61691;53.072;6.582;2023-07-08T04:06:22;101888.97;;;16.95;62.11
73457;BME280;61691;53.072;6.582;2023-07-08T04:08:49;101887.28;;;16.94;62.38
73457;BME280;61691;53.072;6.582;2023-07-08T04:11:21;101870.97;;;16.87;62.24
73457;BME280;61691;53.072;6.582;2023-07-08T04:13:49;101898.19;;;17.10;61.97
73457;BME280;61691;53.072;6.582;2023-07-08T04:16:35;101902.31;;;17.22;62.05
73457;BME280;61691;53.072;6.582;2023-07-08T04:19:09;101838.47;;;17.00;61.61
73457;BME280;61691;53.072;6.582;2023-07-08T04:21:42;101888.78;;;17.77;61.89
73457;BME280;61691;53.072;6.582;2023-07-08T04:24:11;101908.09;;;18.58;61.13
73457;BME280;61691;53.072;6.582;2023-07-08T04:26:39;101857.53;;;18.95;59.71
73457;BME280;61691;53.072;6.582;2023-07-08T04:29:11;101906.38;;;20.06;58.31
73457;BME280;61691;53.072;6.582;2023-07-08T04:31:38;101905.03;;;20.73;57.08
73457;BME280;61691;53.072;6.582;2023-07-08T04:34:05;101901.44;;;21.43;54.85
73457;BME280;61691;53.072;6.582;2023-07-08T04:36:33;101917.69;;;22.18;52.46
73457;BME280;61691;53.072;6.582;2023-07-08T04:39:04;101908.03;;;22.38;50.08
73457;BME280;61691;53.072;6.582;2023-07-08T04:41:31;101916.06;;;22.75;49.45
73457;BME280;61691;53.072;6.582;2023-07-08T04:43:58;101899.44;;;22.93;48.58
73457;BME280;61691;53.072;6.582;2023-07-08T04:46:49;101881.25;;;23.23;45.96
73457;BME280;61691;53.072;6.582;2023-07-08T04:49:21;101910.81;;;23.82;46.05
73457;BME280;61691;53.072;6.582;2023-07-08T04:51:48;101896.03;;;24.12;44.97
73457;BME280;61691;53.072;6.582;2023-07-08T04:54:14;101897.81;;;24.61;44.04
73457;BME280;61691;53.072;6.582;2023-07-08T04:56:47;101907.38;;;24.98;42.66
73457;BME280;61691;53.072;6.582;2023-07-08T04:59:20;101911.38;;;25.09;42.02
73457;BME280;61691;53.072;6.582;2023-07-08T05:01:47;101882.97;;;25.04;41.21
73457;BME280;61691;53.072;6.582;2023-07-08T05:04:17;101921.34;;;25.62;40.64
73457;BME280;61691;53.072;6.582;2023-07-08T05:06:44;101888.13;;;26.00;39.90
73457;BME280;61691;53.072;6.582;2023-07-08T05:09:11;101892.69;;;26.19;38.56
73457;BME280;61691;53.072;6.582;2023-07-08T05:11:42;101892.06;;;26.37;38.41
73457;BME280;61691;53.072;6.582;2023-07-08T05:14:11;101880.53;;;26.41;38.05
73457;BME280;61691;53.072;6.582;2023-07-08T05:16:39;101905.34;;;26.65;37.27
73457;BME280;61691;53.072;6.582;2023-07-08T05:19:07;101909.53;;;26.67;37.46
73457;BME280;61691;53.072;6.582;2023-07-08T05:21:34;101905.09;;;26.79;37.14
73457;BME280;61691;53.072;6.582;2023-07-08T05:24:02;101886.53;;;27.08;36.88
73457;BME280;61691;53.072;6.582;2023-07-08T05:26:30;101895.50;;;27.53;36.10
73457;BME280;61691;53.072;6.582;2023-07-08T05:28:56;101894.41;;;27.85;35.15
73457;BME280;61691;53.072;6.582;2023-07-08T05:31:23;101873.38;;;27.92;34.63
73457;BME280;61691;53.072;6.582;2023-07-08T05:34:10;101890.88;;;28.46;34.02
73457;BME280;61691;53.072;6.582;2023-07-08T05:36:37;101858.72;;;28.66;33.20
73457;BME280;61691;53.072;6.582;2023-07-08T05:39:04;101901.50;;;29.32;32.42
73457;BME280;61691;53.072;6.582;2023-07-08T05:41:30;101867.25;;;29.48;32.28
73457;BME280;61691;53.072;6.582;2023-07-08T05:43:57;101895.72;;;29.82;31.15
73457;BME280;61691;53.072;6.582;2023-07-08T05:46:24;101905.38;;;30.19;30.86
73457;BME280;61691;53.072;6.582;2023-07-08T05:48:51;101900.53;;;30.21;30.67
73457;BME280;61691;53.072;6.582;2023-07-08T05:51:17;101914.63;;;30.30;30.66
73457;BME280;61691;53.072;6.582;2023-07-08T05:53:44;101910.38;;;30.57;30.53
73457;BME280;61691;53.072;6.582;2023-07-08T05:56:11;101900.00;;;30.59;29.10
73457;BME280;61691;53.072;6.582;2023-07-08T05:58:38;101902.84;;;30.53;29.37
73457;BME280;61691;53.072;6.582;2023-07-08T06:01:04;101894.41;;;30.54;29.11
73457;BME280;61691;53.072;6.582;2023-07-08T06:03:32;101850.66;;;30.31;29.58
73457;BME280;61691;53.072;6.582;2023-07-08T06:05:58;101902.81;;;30.76;29.49
73457;BME280;61691;53.072;6.582;2023-07-08T06:08:25;101892.81;;;30.82;29.23
73457;BME280;61691;53.072;6.582;2023-07-08T06:10:52;101882.34;;;31.07;29.27
73457;BME280;61691;53.072;6.582;2023-07-08T06:13:19;101884.34;;;31.40;28.41
73457;BME280;61691;53.072;6.582;2023-07-08T06:15:45;101861.16;;;31.31;27.57
73457;BME280;61691;53.072;6.582;2023-07-08T06:18:12;101886.06;;;31.46;28.08
73457;BME280;61691;53.072;6.582;2023-07-08T06:20:39;101868.97;;;31.39;27.65
73457;BME280;61691;53.072;6.582;2023-07-08T06:23:06;101876.44;;;31.27;27.81
73457;BME280;61691;53.072;6.582;2023-07-08T06:25:32;101863.66;;;31.04;27.86
73457;BME280;61691;53.072;6.582;2023-07-08T06:27:59;101874.94;;;31.19;28.65
73457;BME280;61691;53.072;6.582;2023-07-08T06:30:26;101875.75;;;31.36;27.75
73457;BME280;61691;53.072;6.582;2023-07-08T06:32:53;101881.06;;;31.43;28.06
73457;BME280;61691;53.072;6.582;2023-07-08T06:35:20;101880.94;;;31.66;27.49
73457;BME280;61691;53.072;6.582;2023-07-08T06:37:46;101877.53;;;31.92;27.86
73457;BME280;61691;53.072;6.582;2023-07-08T06:40:13;101877.06;;;32.34;27.33
73457;BME280;61691;53.072;6.582;2023-07-08T06:42:40;101874.69;;;32.64;26.16
73457;BME280;61691;53.072;6.582;2023-07-08T06:45:07;101867.53;;;32.63;25.85
73457;BME280;61691;53.072;6.582;2023-07-08T06:47:33;101864.56;;;32.43;25.68
73457;BME280;61691;53.072;6.582;2023-07-08T06:50:00;101872.06;;;32.70;26.08
73457;BME280;61691;53.072;6.582;2023-07-08T06:52:28;101864.56;;;33.14;25.56
73457;BME280;61691;53.072;6.582;2023-07-08T06:55:01;101860.63;;;33.31;25.79
73457;BME280;61691;53.072;6.582;2023-07-08T06:57:31;101883.69;;;33.89;25.35
73457;BME280;61691;53.072;6.582;2023-07-08T06:59:58;101798.41;;;33.99;24.42
73457;BME280;61691;53.072;6.582;2023-07-08T07:02:26;101868.09;;;34.67;23.33
73457;BME280;61691;53.072;6.582;2023-07-08T07:04:53;101859.38;;;34.85;23.35
73457;BME280;61691;53.072;6.582;2023-07-08T07:07:19;101858.31;;;35.02;22.57
73457;BME280;61691;53.072;6.582;2023-07-08T07:09:46;101876.53;;;35.18;23.16
73457;BME280;61691;53.072;6.582;2023-07-08T07:12:13;101856.66;;;35.06;22.54
73457;BME280;61691;53.072;6.582;2023-07-08T07:14:39;101863.84;;;35.02;23.04
73457;BME280;61691;53.072;6.582;2023-07-08T07:17:09;101805.41;;;35.10;23.02
73457;BME280;61691;53.072;6.582;2023-07-08T07:19:36;101868.31;;;35.63;22.47
73457;BME280;61691;53.072;6.582;2023-07-08T07:22:03;101861.13;;;35.62;22.28
73457;BME280;61691;53.072;6.582;2023-07-08T07:24:30;101854.78;;;35.47;22.37
73457;BME280;61691;53.072;6.582;2023-07-08T07:26:56;101865.00;;;35.31;22.53
73457;BME280;61691;53.072;6.582;2023-07-08T07:29:23;101859.94;;;34.98;23.07
73457;BME280;61691;53.072;6.582;2023-07-08T07:31:50;101842.22;;;34.68;23.29
73457;BME280;61691;53.072;6.582;2023-07-08T07:34:18;101854.91;;;34.69;23.78
73457;BME280;61691;53.072;6.582;2023-07-08T07:36:45;101845.22;;;34.56;23.45
73457;BME280;61691;53.072;6.582;2023-07-08T07:39:12;101848.34;;;34.75;23.82
73457;BME280;61691;53.072;6.582;2023-07-08T07:41:38;101850.56;;;34.83;24.08
73457;BME280;61691;53.072;6.582;2023-07-08T07:44:05;101850.44;;;34.53;23.82
73457;BME280;61691;53.072;6.582;2023-07-08T07:46:32;101834.66;;;33.86;23.94
73457;BME280;61691;53.072;6.582;2023-07-08T07:49:00;101837.28;;;33.34;25.28
73457;BME280;61691;53.072;6.582;2023-07-08T07:51:26;101836.69;;;33.00;25.93
73457;BME280;61691;53.072;6.582;2023-07-08T07:53:53;101839.00;;;32.64;26.60
73457;BME280;61691;53.072;6.582;2023-07-08T07:56:20;101804.34;;;31.76;27.57
73457;BME280;61691;53.072;6.582;2023-07-08T07:58:49;101841.22;;;31.52;28.12
73457;BME280;61691;53.072;6.582;2023-07-08T08:01:16;101849.13;;;31.03;29.16
73457;BME280;61691;53.072;6.582;2023-07-08T08:03:42;101826.34;;;30.46;29.60
73457;BME280;61691;53.072;6.582;2023-07-08T08:06:09;101847.34;;;30.29;30.37
73457;BME280;61691;53.072;6.582;2023-07-08T08:08:36;101826.41;;;29.88;30.44
73457;BME280;61691;53.072;6.582;2023-07-08T08:11:04;101829.50;;;29.56;30.94
73457;BME280;61691;53.072;6.582;2023-07-08T08:13:30;101841.19;;;29.22;32.23
73457;BME280;61691;53.072;6.582;2023-07-08T08:15:58;101836.72;;;28.98;32.05
73457;BME280;61691;53.072;6.582;2023-07-08T08:18:26;101844.84;;;28.68;33.35
73457;BME280;61691;53.072;6.582;2023-07-08T08:20:53;101828.91;;;28.35;34.01
73457;BME280;61691;53.072;6.582;2023-07-08T08:23:19;101829.31;;;28.13;34.19
73457;BME280;61691;53.072;6.582;2023-07-08T08:25:46;101850.56;;;28.11;35.30
73457;BME280;61691;53.072;6.582;2023-07-08T08:28:13;101848.69;;;28.05;34.95
73457;BME280;61691;53.072;6.582;2023-07-08T08:30:40;101843.53;;;27.97;35.21
73457;BME280;61691;53.072;6.582;2023-07-08T08:33:07;101844.44;;;27.91;35.66
73457;BME280;61691;53.072;6.582;2023-07-08T08:35:33;101856.50;;;28.02;35.71
73457;BME280;61691;53.072;6.582;2023-07-08T08:38:00;101839.00;;;27.91;35.77
73457;BME280;61691;53.072;6.582;2023-07-08T08:40:31;101844.59;;;27.78;35.88
73457;BME280;61691;53.072;6.582;2023-07-08T08:43:07;101825.91;;;27.57;36.14
73457;BME280;61691;53.072;6.582;2023-07-08T08:45:52;101853.03;;;27.70;36.41
73457;BME280;61691;53.072;6.582;2023-07-08T08:48:22;101840.88;;;27.72;36.38
73457;BME280;61691;53.072;6.582;2023-07-08T08:51:06;101840.81;;;27.79;36.57
73457;BME280;61691;53.072;6.582;2023-07-08T08:53:34;101825.34;;;27.73;36.42
73457;BME280;61691;53.072;6.582;2023-07-08T08:56:12;101852.59;;;27.73;36.62
73457;BME280;61691;53.072;6.582;2023-07-08T08:58:47;101848.81;;;27.74;36.57
73457;BME280;61691;53.072;6.582;2023-07-08T09:01:17;101825.19;;;27.68;36.68
73457;BME280;61691;53.072;6.582;2023-07-08T09:03:53;101837.31;;;27.90;36.13
73457;BME280;61691;53.072;6.582;2023-07-08T09:06:28;101834.31;;;27.98;36.04
73457;BME280;61691;53.072;6.582;2023-07-08T09:08:57;101827.03;;;27.92;35.86
73457;BME280;61691;53.072;6.582;2023-07-08T09:11:44;101835.16;;;27.99;35.76
73457;BME280;61691;53.072;6.582;2023-07-08T09:14:15;101838.94;;;27.98;36.21
73457;BME280;61691;53.072;6.582;2023-07-08T09:21:46;101808.56;;;28.12;36.78
73457;BME280;61691;53.072;6.582;2023-07-08T09:26:51;101821.56;;;28.17;35.45
73457;BME280;61691;53.072;6.582;2023-07-08T09:29:18;101833.91;;;28.20;35.74
73457;BME280;61691;53.072;6.582;2023-07-08T09:31:45;101814.09;;;28.06;35.66
73457;BME280;61691;53.072;6.582;2023-07-08T09:34:17;101811.59;;;28.04;36.15
73457;BME280;61691;53.072;6.582;2023-07-08T09:36:46;101828.75;;;28.11;35.55
73457;BME280;61691;53.072;6.582;2023-07-08T09:39:16;101804.03;;;28.06;35.84
73457;BME280;61691;53.072;6.582;2023-07-08T09:41:45;101831.88;;;28.33;35.48
73457;BME280;61691;53.072;6.582;2023-07-08T09:44:24;101818.00;;;28.35;34.91
73457;BME280;61691;53.072;6.582;2023-07-08T09:46:59;101832.06;;;28.50;35.52
73457;BME280;61691;53.072;6.582;2023-07-08T09:49:34;101819.03;;;28.52;35.05
73457;BME280;61691;53.072;6.582;2023-07-08T09:52:02;101820.25;;;28.56;35.96
73457;BME280;61691;53.072;6.582;2023-07-08T09:54:31;101829.50;;;28.55;35.80
73457;BME280;61691;53.072;6.582;2023-07-08T09:57:05;101813.44;;;28.47;35.41
73457;BME280;61691;53.072;6.582;2023-07-08T09:59:42;101818.13;;;28.58;36.26
73457;BME280;61691;53.072;6.582;2023-07-08T10:02:27;101818.84;;;28.65;36.58
73457;BME280;61691;53.072;6.582;2023-07-08T10:05:00;101820.84;;;28.76;35.43
73457;BME280;61691;53.072;6.582;2023-07-08T10:07:31;101821.59;;;28.83;35.22
73457;BME280;61691;53.072;6.582;2023-07-08T10:10:02;101826.59;;;28.86;35.53
73457;BME280;61691;53.072;6.582;2023-07-08T10:12:31;101816.13;;;28.83;35.25
73457;BME280;61691;53.072;6.582;2023-07-08T10:15:05;101816.41;;;28.94;35.46
73457;BME280;61691;53.072;6.582;2023-07-08T10:17:40;101796.56;;;28.86;34.69
73457;BME280;61691;53.072;6.582;2023-07-08T10:20:11;101807.91;;;29.02;35.33
73457;BME280;61691;53.072;6.582;2023-07-08T10:22:46;101817.53;;;29.16;34.53
73457;BME280;61691;53.072;6.582;2023-07-08T10:25:42;101808.53;;;29.15;34.54
73457;BME280;61691;53.072;6.582;2023-07-08T10:30:47;101797.25;;;29.23;35.57
73457;BME280;61691;53.072;6.582;2023-07-08T10:33:42;101825.81;;;29.39;34.63
73457;BME280;61691;53.072;6.582;2023-07-08T10:45:13;101815.13;;;29.49;34.79
73457;BME280;61691;53.072;6.582;2023-07-08T10:50:39;101808.13;;;29.65;34.12
73457;BME280;61691;53.072;6.582;2023-07-08T10:53:25;101807.53;;;29.75;34.56
73457;BME280;61691;53.072;6.582;2023-07-08T10:55:58;101808.94;;;29.89;34.00
73457;BME280;61691;53.072;6.582;2023-07-08T10:58:33;101809.09;;;29.94;34.02
73457;BME280;61691;53.072;6.582;2023-07-08T11:03:41;101799.13;;;29.99;32.94
73457;BME280;61691;53.072;6.582;2023-07-08T11:06:17;101779.13;;;29.87;33.71
73457;BME280;61691;53.072;6.582;2023-07-08T11:08:49;101753.06;;;29.85;33.89
73457;BME280;61691;53.072;6.582;2023-07-08T11:11:41;101766.16;;;30.06;33.76
73457;BME280;61691;53.072;6.582;2023-07-08T11:14:13;101741.94;;;29.98;33.16
73457;BME280;61691;53.072;6.582;2023-07-08T11:16:46;101791.66;;;30.35;33.45
73457;BME280;61691;53.072;6.582;2023-07-08T11:19:26;101783.22;;;30.36;33.72
73457;BME280;61691;53.072;6.582;2023-07-08T11:21:57;101779.00;;;30.46;33.31
73457;BME280;61691;53.072;6.582;2023-07-08T11:24:30;101785.78;;;30.55;33.72
73457;BME280;61691;53.072;6.582;2023-07-08T11:27:01;101776.84;;;30.59;33.40
73457;BME280;61691;53.072;6.582;2023-07-08T11:29:43;101781.09;;;30.67;32.06
73457;BME280;61691;53.072;6.582;2023-07-08T11:32:15;101779.59;;;30.76;32.32
73457;BME280;61691;53.072;6.582;2023-07-08T11:34:44;101784.59;;;30.79;33.45
73457;BME280;61691;53.072;6.582;2023-07-08T11:37:13;101782.31;;;30.88;32.02
73457;BME280;61691;53.072;6.582;2023-07-08T11:39:42;101769.72;;;30.75;31.18
73457;BME280;61691;53.072;6.582;2023-07-08T11:44:49;101762.09;;;30.77;31.95
73457;BME280;61691;53.072;6.582;2023-07-08T11:47:39;101748.19;;;30.78;31.79
73457;BME280;61691;53.072;6.582;2023-07-08T11:50:23;101764.63;;;30.95;32.51
73457;BME280;61691;53.072;6.582;2023-07-08T11:52:54;101763.88;;;31.00;32.71
73457;BME280;61691;53.072;6.582;2023-07-08T11:55:43;101761.84;;;31.07;31.93
73457;BME280;61691;53.072;6.582;2023-07-08T11:58:22;101745.41;;;31.07;31.74
73457;BME280;61691;53.072;6.582;2023-07-08T12:01:04;101750.06;;;31.23;31.12
73457;BME280;61691;53.072;6.582;2023-07-08T12:03:37;101754.63;;;31.34;30.59
73457;BME280;61691;53.072;6.582;2023-07-08T12:08:54;101754.47;;;31.41;31.02
73457;BME280;61691;53.072;6.582;2023-07-08T12:11:35;101750.72;;;31.47;31.26
73457;BME280;61691;53.072;6.582;2023-07-08T12:14:05;101748.22;;;31.45;30.70
73457;BME280;61691;53.072;6.582;2023-07-08T12:16:35;101750.06;;;31.40;30.17
73457;BME280;61691;53.072;6.582;2023-07-08T12:19:04;101726.81;;;31.26;30.48
73457;BME280;61691;53.072;6.582;2023-07-08T12:21:34;101743.75;;;31.39;30.20
73457;BME280;61691;53.072;6.582;2023-07-08T12:24:06;101735.41;;;31.51;30.86
73457;BME280;61691;53.072;6.582;2023-07-08T12:26:34;101714.50;;;31.45;29.82
73457;BME280;61691;53.072;6.582;2023-07-08T12:29:01;101711.97;;;31.60;29.27
73457;BME280;61691;53.072;6.582;2023-07-08T12:31:28;101736.69;;;31.82;29.54
73457;BME280;61691;53.072;6.582;2023-07-08T12:33:56;101724.41;;;31.84;28.18
73457;BME280;61691;53.072;6.582;2023-07-08T12:36:26;101733.31;;;31.97;28.06
73457;BME280;61691;53.072;6.582;2023-07-08T12:38:58;101741.94;;;32.05;28.22
73457;BME280;61691;53.072;6.582;2023-07-08T12:41:35;101738.44;;;32.10;28.21
73457;BME280;61691;53.072;6.582;2023-07-08T12:44:14;101741.84;;;32.17;27.94
73457;BME280;61691;53.072;6.582;2023-07-08T12:46:42;101736.91;;;32.19;28.05
73457;BME280;61691;53.072;6.582;2023-07-08T12:49:09;101724.09;;;32.03;27.42
73457;BME280;61691;53.072;6.582;2023-07-08T12:51:36;101736.66;;;31.99;27.44
73457;BME280;61691;53.072;6.582;2023-07-08T12:54:03;101737.16;;;31.96;27.39
73457;BME280;61691;53.072;6.582;2023-07-08T12:56:30;101724.47;;;31.89;27.36
73457;BME280;61691;53.072;6.582;2023-07-08T12:58:57;101724.34;;;32.01;28.16
73457;BME280;61691;53.072;6.582;2023-07-08T13:01:28;101719.78;;;32.12;28.14
73457;BME280;61691;53.072;6.582;2023-07-08T13:04:01;101726.06;;;32.29;26.43
73457;BME280;61691;53.072;6.582;2023-07-08T13:06:31;101727.72;;;32.30;26.19
73457;BME280;61691;53.072;6.582;2023-07-08T13:09:35;101730.59;;;32.40;26.08
73457;BME280;61691;53.072;6.582;2023-07-08T13:12:13;101730.06;;;32.43;25.98
73457;BME280;61691;53.072;6.582;2023-07-08T13:14:41;101687.28;;;32.20;25.78
73457;BME280;61691;53.072;6.582;2023-07-08T13:17:14;101728.41;;;32.42;25.68
73457;BME280;61691;53.072;6.582;2023-07-08T13:19:42;101703.28;;;32.28;26.40
73457;BME280;61691;53.072;6.582;2023-07-08T13:22:21;101703.06;;;32.35;26.60
73457;BME280;61691;53.072;6.582;2023-07-08T13:24:49;101710.84;;;32.43;27.28
73457;BME280;61691;53.072;6.582;2023-07-08T13:27:25;101694.09;;;32.40;26.48
73457;BME280;61691;53.072;6.582;2023-07-08T13:30:04;101705.00;;;32.61;26.17
73457;BME280;61691;53.072;6.582;2023-07-08T13:32:37;101705.53;;;32.63;26.12
73457;BME280;61691;53.072;6.582;2023-07-08T13:35:04;101706.69;;;32.67;25.06
73457;BME280;61691;53.072;6.582;2023-07-08T13:37:31;101661.16;;;32.40;25.44